sensor_id;sensor_type;location;lat;lon;timestamp;P1;durP1;ratioP1;P2;durP2;ratioP2
9052;SDS011;4561;47.450;7.516;2022-09-09T00:04:33;3.13;;;0.93;;
9052;SDS011;4561;47.450;7.516;2022-09-09T00:07:55;11.73;;;1.17;;
9052;SDS011;4561;47.450;7.516;2022-09-09T00:11:20;2.33;;;1.03;;
9052;SDS011;4561;47.450;7.516;2022-09-09T00:14:51;1.40;;;0.83;;
9052;SDS011;4561;47.450;7.516;2022-09-09T00:25:14;2.23;;;1.13;;
9052;SDS011;4561;47.450;7.516;2022-09-09T00:32:30;6.73;;;1.10;;
9052;SDS011;4561;47.450;7.516;2022-09-09T00:35:58;2.30;;;0.97;;
9052;SDS011;4561;47.450;7.516;2022-09-09T00:43:00;3.93;;;1.00;;
9052;SDS011;4561;47.450;7.516;2022-09-09T00:50:53;1.90;;;1.00;;
9052;SDS011;4561;47.450;7.516;2022-09-09T00:54:26;3.93;;;1.20;;
9052;SDS011;4561;47.450;7.516;2022-09-09T00:57:53;2.77;;;1.13;;
9052;SDS011;4561;47.450;7.516;2022-09-09T01:01:13;2.73;;;1.07;;
9052;SDS011;4561;47.450;7.516;2022-09-09T01:04:34;3.93;;;0.97;;
9052;SDS011;4561;47.450;7.516;2022-09-09T01:07:56;2.87;;;1.10;;
9052;SDS011;4561;47.450;7.516;2022-09-09T01:11:31;1.53;;;0.87;;
9052;SDS011;4561;47.450;7.516;2022-09-09T01:18:39;7.37;;;1.20;;
9052;SDS011;4561;47.450;7.516;2022-09-09T01:22:13;2.60;;;1.10;;
9052;SDS011;4561;47.450;7.516;2022-09-09T01:29:26;8.03;;;1.50;;
9052;SDS011;4561;47.450;7.516;2022-09-09T01:32:48;2.27;;;1.10;;
9052;SDS011;4561;47.450;7.516;2022-09-09T01:39:30;3.70;;;1.43;;
9052;SDS011;4561;47.450;7.516;2022-09-09T01:42:51;3.03;;;1.30;;
9052;SDS011;4561;47.450;7.516;2022-09-09T01:46:12;5.17;;;1.30;;
9052;SDS011;4561;47.450;7.516;2022-09-09T01:49:33;3.93;;;1.23;;
9052;SDS011;4561;47.450;7.516;2022-09-09T01:52:55;4.67;;;1.50;;
9052;SDS011;4561;47.450;7.516;2022-09-09T02:06:44;5.17;;;1.00;;
9052;SDS011;4561;47.450;7.516;2022-09-09T02:13:37;2.93;;;0.90;;
9052;SDS011;4561;47.450;7.516;2022-09-09T02:17:02;1.83;;;0.87;;
9052;SDS011;4561;47.450;7.516;2022-09-09T02:20:24;2.50;;;0.70;;
9052;SDS011;4561;47.450;7.516;2022-09-09T02:23:47;2.53;;;0.90;;
9052;SDS011;4561;47.450;7.516;2022-09-09T02:27:12;5.30;;;1.50;;
9052;SDS011;4561;47.450;7.516;2022-09-09T02:30:33;3.73;;;0.97;;
9052;SDS011;4561;47.450;7.516;2022-09-09T02:33:55;4.90;;;1.23;;
9052;SDS011;4561;47.450;7.516;2022-09-09T02:37:18;3.03;;;1.10;;
9052;SDS011;4561;47.450;7.516;2022-09-09T02:40:39;4.43;;;1.00;;
9052;SDS011;4561;47.450;7.516;2022-09-09T02:44:00;3.63;;;0.90;;
9052;SDS011;4561;47.450;7.516;2022-09-09T02:51:10;1.50;;;0.93;;
9052;SDS011;4561;47.450;7.516;2022-09-09T02:54:47;2.33;;;1.07;;
9052;SDS011;4561;47.450;7.516;2022-09-09T02:58:09;5.13;;;1.17;;
9052;SDS011;4561;47.450;7.516;2022-09-09T03:01:31;1.70;;;0.70;;
9052;SDS011;4561;47.450;7.516;2022-09-09T03:04:52;3.67;;;1.20;;
9052;SDS011;4561;47.450;7.516;2022-09-09T03:08:12;2.00;;;1.00;;
9052;SDS011;4561;47.450;7.516;2022-09-09T03:11:33;3.67;;;1.23;;
9052;SDS011;4561;47.450;7.516;2022-09-09T03:14:53;2.87;;;1.20;;
9052;SDS011;4561;47.450;7.516;2022-09-09T03:18:14;3.03;;;1.33;;
9052;SDS011;4561;47.450;7.516;2022-09-09T03:21:34;2.70;;;0.90;;
9052;SDS011;4561;47.450;7.516;2022-09-09T03:24:55;4.27;;;1.20;;
9052;SDS011;4561;47.450;7.516;2022-09-09T03:28:16;4.43;;;1.10;;
9052;SDS011;4561;47.450;7.516;2022-09-09T03:31:39;3.20;;;1.10;;
9052;SDS011;4561;47.450;7.516;2022-09-09T03:34:59;1.97;;;1.07;;
9052;SDS011;4561;47.450;7.516;2022-09-09T03:38:20;2.80;;;1.20;;
9052;SDS011;4561;47.450;7.516;2022-09-09T03:41:40;3.03;;;0.93;;
9052;SDS011;4561;47.450;7.516;2022-09-09T03:45:00;4.53;;;1.20;;
9052;SDS011;4561;47.450;7.516;2022-09-09T03:48:21;3.17;;;1.40;;
9052;SDS011;4561;47.450;7.516;2022-09-09T03:51:44;2.40;;;1.10;;
9052;SDS011;4561;47.450;7.516;2022-09-09T03:55:05;4.70;;;1.20;;
9052;SDS011;4561;47.450;7.516;2022-09-09T03:58:28;7.07;;;1.27;;
9052;SDS011;4561;47.450;7.516;2022-09-09T04:01:48;2.20;;;1.00;;
9052;SDS011;4561;47.450;7.516;2022-09-09T04:05:09;4.17;;;1.20;;
9052;SDS011;4561;47.450;7.516;2022-09-09T04:08:30;5.03;;;1.40;;
9052;SDS011;4561;47.450;7.516;2022-09-09T04:11:53;2.00;;;0.80;;
9052;SDS011;4561;47.450;7.516;2022-09-09T04:15:14;5.37;;;1.10;;
9052;SDS011;4561;47.450;7.516;2022-09-09T04:18:35;2.63;;;1.00;;
9052;SDS011;4561;47.450;7.516;2022-09-09T04:21:56;8.57;;;1.40;;
9052;SDS011;4561;47.450;7.516;2022-09-09T04:25:16;7.87;;;1.43;;
9052;SDS011;4561;47.450;7.516;2022-09-09T04:28:37;2.70;;;0.80;;
9052;SDS011;4561;47.450;7.516;2022-09-09T04:31:59;8.70;;;1.30;;
9052;SDS011;4561;47.450;7.516;2022-09-09T04:35:20;3.43;;;0.93;;
9052;SDS011;4561;47.450;7.516;2022-09-09T04:38:41;2.83;;;1.20;;
9052;SDS011;4561;47.450;7.516;2022-09-09T04:42:01;5.37;;;1.10;;
9052;SDS011;4561;47.450;7.516;2022-09-09T04:45:22;2.53;;;1.00;;
9052;SDS011;4561;47.450;7.516;2022-09-09T04:48:46;4.33;;;1.33;;
9052;SDS011;4561;47.450;7.516;2022-09-09T04:52:07;4.53;;;1.13;;
9052;SDS011;4561;47.450;7.516;2022-09-09T04:55:30;4.33;;;1.30;;
9052;SDS011;4561;47.450;7.516;2022-09-09T04:58:51;5.50;;;1.50;;
9052;SDS011;4561;47.450;7.516;2022-09-09T05:02:11;3.87;;;1.40;;
9052;SDS011;4561;47.450;7.516;2022-09-09T05:05:32;4.93;;;1.33;;
9052;SDS011;4561;47.450;7.516;2022-09-09T05:08:56;4.50;;;1.40;;
9052;SDS011;4561;47.450;7.516;2022-09-09T05:12:17;2.93;;;1.20;;
9052;SDS011;4561;47.450;7.516;2022-09-09T05:15:38;3.73;;;1.23;;
9052;SDS011;4561;47.450;7.516;2022-09-09T05:19:03;3.80;;;1.37;;
9052;SDS011;4561;47.450;7.516;2022-09-09T05:22:23;5.30;;;1.23;;
9052;SDS011;4561;47.450;7.516;2022-09-09T05:25:43;2.10;;;1.13;;
9052;SDS011;4561;47.450;7.516;2022-09-09T05:29:05;5.43;;;1.20;;
9052;SDS011;4561;47.450;7.516;2022-09-09T05:32:26;5.63;;;1.20;;
9052;SDS011;4561;47.450;7.516;2022-09-09T05:35:46;4.10;;;1.20;;
9052;SDS011;4561;47.450;7.516;2022-09-09T05:39:06;5.03;;;1.20;;
9052;SDS011;4561;47.450;7.516;2022-09-09T05:42:30;4.23;;;1.20;;
9052;SDS011;4561;47.450;7.516;2022-09-09T05:49:34;6.17;;;1.30;;
9052;SDS011;4561;47.450;7.516;2022-09-09T05:52:55;5.30;;;1.03;;
9052;SDS011;4561;47.450;7.516;2022-09-09T05:56:19;4.57;;;1.13;;
9052;SDS011;4561;47.450;7.516;2022-09-09T05:59:41;2.53;;;1.13;;
9052;SDS011;4561;47.450;7.516;2022-09-09T06:03:02;3.00;;;1.17;;
9052;SDS011;4561;47.450;7.516;2022-09-09T06:06:24;3.37;;;1.00;;
9052;SDS011;4561;47.450;7.516;2022-09-09T06:09:46;4.77;;;1.03;;
9052;SDS011;4561;47.450;7.516;2022-09-09T06:13:07;5.47;;;1.47;;
9052;SDS011;4561;47.450;7.516;2022-09-09T06:16:30;3.33;;;1.20;;
9052;SDS011;4561;47.450;7.516;2022-09-09T06:19:52;5.33;;;1.33;;
9052;SDS011;4561;47.450;7.516;2022-09-09T06:23:13;4.97;;;1.47;;
9052;SDS011;4561;47.450;7.516;2022-09-09T06:26:34;3.73;;;1.17;;
9052;SDS011;4561;47.450;7.516;2022-09-09T06:30:01;2.27;;;0.90;;
9052;SDS011;4561;47.450;7.516;2022-09-09T06:33:22;3.77;;;1.00;;
9052;SDS011;4561;47.450;7.516;2022-09-09T06:36:43;4.07;;;1.10;;
9052;SDS011;4561;47.450;7.516;2022-09-09T06:40:04;6.10;;;1.33;;
9052;SDS011;4561;47.450;7.516;2022-09-09T06:43:30;4.37;;;1.30;;
9052;SDS011;4561;47.450;7.516;2022-09-09T06:46:50;3.63;;;1.43;;
9052;SDS011;4561;47.450;7.516;2022-09-09T06:50:13;6.23;;;1.70;;
9052;SDS011;4561;47.450;7.516;2022-09-09T06:53:36;4.27;;;1.90;;
9052;SDS011;4561;47.450;7.516;2022-09-09T06:56:58;2.00;;;1.40;;
9052;SDS011;4561;47.450;7.516;2022-09-09T07:00:20;2.83;;;1.37;;
9052;SDS011;4561;47.450;7.516;2022-09-09T07:03:41;6.90;;;1.53;;
9052;SDS011;4561;47.450;7.516;2022-09-09T07:07:02;2.83;;;1.13;;
9052;SDS011;4561;47.450;7.516;2022-09-09T07:10:25;2.63;;;1.10;;
9052;SDS011;4561;47.450;7.516;2022-09-09T07:13:45;4.70;;;1.10;;
9052;SDS011;4561;47.450;7.516;2022-09-09T07:17:06;2.60;;;0.97;;
9052;SDS011;4561;47.450;7.516;2022-09-09T07:20:27;6.03;;;1.50;;
9052;SDS011;4561;47.450;7.516;2022-09-09T07:23:47;3.93;;;1.20;;
9052;SDS011;4561;47.450;7.516;2022-09-09T07:27:08;2.97;;;1.60;;
9052;SDS011;4561;47.450;7.516;2022-09-09T07:30:31;4.00;;;1.60;;
9052;SDS011;4561;47.450;7.516;2022-09-09T07:33:51;3.57;;;1.13;;
9052;SDS011;4561;47.450;7.516;2022-09-09T07:37:14;2.83;;;1.00;;
9052;SDS011;4561;47.450;7.516;2022-09-09T07:40:37;4.90;;;1.20;;
9052;SDS011;4561;47.450;7.516;2022-09-09T07:43:59;3.40;;;1.03;;
9052;SDS011;4561;47.450;7.516;2022-09-09T07:47:24;3.77;;;1.20;;
9052;SDS011;4561;47.450;7.516;2022-09-09T07:50:45;7.57;;;1.30;;
9052;SDS011;4561;47.450;7.516;2022-09-09T07:54:06;1.90;;;0.90;;
9052;SDS011;4561;47.450;7.516;2022-09-09T07:57:29;3.27;;;1.20;;
9052;SDS011;4561;47.450;7.516;2022-09-09T08:00:50;5.77;;;1.33;;
9052;SDS011;4561;47.450;7.516;2022-09-09T08:04:12;3.40;;;1.00;;
9052;SDS011;4561;47.450;7.516;2022-09-09T08:07:37;4.67;;;1.30;;
9052;SDS011;4561;47.450;7.516;2022-09-09T08:11:17;5.77;;;1.10;;
9052;SDS011;4561;47.450;7.516;2022-09-09T08:14:38;3.47;;;0.97;;
9052;SDS011;4561;47.450;7.516;2022-09-09T08:18:00;4.60;;;1.17;;
9052;SDS011;4561;47.450;7.516;2022-09-09T08:21:21;3.90;;;1.10;;
9052;SDS011;4561;47.450;7.516;2022-09-09T08:24:47;3.33;;;0.93;;
9052;SDS011;4561;47.450;7.516;2022-09-09T08:28:07;2.77;;;1.03;;
9052;SDS011;4561;47.450;7.516;2022-09-09T08:31:33;4.43;;;1.50;;
9052;SDS011;4561;47.450;7.516;2022-09-09T08:34:55;5.30;;;1.20;;
9052;SDS011;4561;47.450;7.516;2022-09-09T08:38:15;3.80;;;1.30;;
9052;SDS011;4561;47.450;7.516;2022-09-09T08:45:28;5.57;;;0.93;;
9052;SDS011;4561;47.450;7.516;2022-09-09T08:48:54;1.63;;;0.97;;
9052;SDS011;4561;47.450;7.516;2022-09-09T08:52:22;4.63;;;1.00;;
9052;SDS011;4561;47.450;7.516;2022-09-09T08:55:47;3.53;;;0.80;;
9052;SDS011;4561;47.450;7.516;2022-09-09T08:59:21;3.97;;;1.30;;
9052;SDS011;4561;47.450;7.516;2022-09-09T09:13:53;3.43;;;1.23;;
9052;SDS011;4561;47.450;7.516;2022-09-09T09:17:17;2.97;;;0.70;;
9052;SDS011;4561;47.450;7.516;2022-09-09T09:20:42;4.10;;;1.02;;
9052;SDS011;4561;47.450;7.516;2022-09-09T09:24:20;2.28;;;0.88;;
9052;SDS011;4561;47.450;7.516;2022-09-09T09:27:44;6.90;;;1.25;;
9052;SDS011;4561;47.450;7.516;2022-09-09T09:31:13;4.03;;;0.93;;
9052;SDS011;4561;47.450;7.516;2022-09-09T09:34:33;3.17;;;0.90;;
9052;SDS011;4561;47.450;7.516;2022-09-09T09:37:54;4.15;;;1.25;;
9052;SDS011;4561;47.450;7.516;2022-09-09T09:41:14;3.65;;;1.15;;
9052;SDS011;4561;47.450;7.516;2022-09-09T09:44:35;2.40;;;0.90;;
9052;SDS011;4561;47.450;7.516;2022-09-09T09:48:00;3.63;;;1.20;;
9052;SDS011;4561;47.450;7.516;2022-09-09T09:51:22;3.55;;;1.13;;
9052;SDS011;4561;47.450;7.516;2022-09-09T09:54:43;2.85;;;1.20;;
9052;SDS011;4561;47.450;7.516;2022-09-09T09:58:04;2.90;;;1.05;;
9052;SDS011;4561;47.450;7.516;2022-09-09T10:01:30;4.95;;;1.15;;
9052;SDS011;4561;47.450;7.516;2022-09-09T10:05:03;3.95;;;1.08;;
9052;SDS011;4561;47.450;7.516;2022-09-09T10:08:26;2.92;;;0.98;;
9052;SDS011;4561;47.450;7.516;2022-09-09T10:18:58;2.80;;;1.05;;
9052;SDS011;4561;47.450;7.516;2022-09-09T10:37:06;2.33;;;0.90;;
9052;SDS011;4561;47.450;7.516;2022-09-09T10:44:27;3.03;;;1.02;;
9052;SDS011;4561;47.450;7.516;2022-09-09T10:58:38;1.60;;;0.88;;
9052;SDS011;4561;47.450;7.516;2022-09-09T11:02:29;2.40;;;0.70;;
9052;SDS011;4561;47.450;7.516;2022-09-09T11:06:00;2.85;;;1.23;;
9052;SDS011;4561;47.450;7.516;2022-09-09T11:09:25;1.30;;;0.80;;
9052;SDS011;4561;47.450;7.516;2022-09-09T11:12:50;2.60;;;0.82;;
9052;SDS011;4561;47.450;7.516;2022-09-09T11:19:41;2.05;;;1.00;;
9052;SDS011;4561;47.450;7.516;2022-09-09T11:23:17;3.22;;;0.73;;
9052;SDS011;4561;47.450;7.516;2022-09-09T11:27:14;2.38;;;0.68;;
9052;SDS011;4561;47.450;7.516;2022-09-09T11:34:19;3.60;;;0.80;;
9052;SDS011;4561;47.450;7.516;2022-09-09T11:41:32;3.55;;;1.25;;
9052;SDS011;4561;47.450;7.516;2022-09-09T11:44:54;2.13;;;0.60;;
9052;SDS011;4561;47.450;7.516;2022-09-09T11:48:22;7.70;;;1.08;;
9052;SDS011;4561;47.450;7.516;2022-09-09T11:51:44;2.00;;;0.85;;
9052;SDS011;4561;47.450;7.516;2022-09-09T11:55:12;4.47;;;0.90;;
9052;SDS011;4561;47.450;7.516;2022-09-09T11:58:56;2.45;;;0.68;;
9052;SDS011;4561;47.450;7.516;2022-09-09T12:02:25;1.30;;;0.60;;
9052;SDS011;4561;47.450;7.516;2022-09-09T12:05:50;1.27;;;0.50;;
9052;SDS011;4561;47.450;7.516;2022-09-09T12:12:40;1.98;;;0.70;;
9052;SDS011;4561;47.450;7.516;2022-09-09T12:16:01;2.08;;;0.50;;
9052;SDS011;4561;47.450;7.516;2022-09-09T12:19:25;1.85;;;0.93;;
9052;SDS011;4561;47.450;7.516;2022-09-09T12:33:37;1.58;;;0.85;;
9052;SDS011;4561;47.450;7.516;2022-09-09T12:40:54;3.53;;;1.00;;
9052;SDS011;4561;47.450;7.516;2022-09-09T12:44:16;2.15;;;0.80;;
9052;SDS011;4561;47.450;7.516;2022-09-09T12:47:40;3.30;;;0.67;;
9052;SDS011;4561;47.450;7.516;2022-09-09T12:51:07;2.70;;;0.60;;
9052;SDS011;4561;47.450;7.516;2022-09-09T12:54:49;2.00;;;0.60;;
9052;SDS011;4561;47.450;7.516;2022-09-09T12:58:13;1.90;;;0.70;;
9052;SDS011;4561;47.450;7.516;2022-09-09T13:01:36;2.97;;;0.73;;
9052;SDS011;4561;47.450;7.516;2022-09-09T13:05:06;1.97;;;0.50;;
9052;SDS011;4561;47.450;7.516;2022-09-09T13:08:29;3.53;;;0.80;;
9052;SDS011;4561;47.450;7.516;2022-09-09T13:11:50;0.87;;;0.60;;
9052;SDS011;4561;47.450;7.516;2022-09-09T13:15:19;2.90;;;0.93;;
9052;SDS011;4561;47.450;7.516;2022-09-09T13:18:42;1.33;;;0.63;;
9052;SDS011;4561;47.450;7.516;2022-09-09T13:25:56;1.50;;;0.60;;
9052;SDS011;4561;47.450;7.516;2022-09-09T13:29:18;2.27;;;0.67;;
9052;SDS011;4561;47.450;7.516;2022-09-09T13:32:39;2.57;;;0.90;;
9052;SDS011;4561;47.450;7.516;2022-09-09T13:36:00;2.63;;;0.80;;
9052;SDS011;4561;47.450;7.516;2022-09-09T13:39:30;4.20;;;1.00;;
9052;SDS011;4561;47.450;7.516;2022-09-09T13:42:56;3.03;;;0.90;;
9052;SDS011;4561;47.450;7.516;2022-09-09T13:50:10;2.87;;;0.90;;
9052;SDS011;4561;47.450;7.516;2022-09-09T13:53:42;3.10;;;0.70;;
9052;SDS011;4561;47.450;7.516;2022-09-09T13:57:02;2.80;;;0.80;;
9052;SDS011;4561;47.450;7.516;2022-09-09T14:00:24;2.17;;;1.00;;
9052;SDS011;4561;47.450;7.516;2022-09-09T14:03:45;3.47;;;1.07;;
9052;SDS011;4561;47.450;7.516;2022-09-09T14:07:05;4.13;;;0.70;;
9052;SDS011;4561;47.450;7.516;2022-09-09T14:10:25;2.97;;;0.90;;
9052;SDS011;4561;47.450;7.516;2022-09-09T14:13:46;2.07;;;0.80;;
9052;SDS011;4561;47.450;7.516;2022-09-09T14:17:09;2.20;;;0.70;;
9052;SDS011;4561;47.450;7.516;2022-09-09T14:20:30;3.90;;;0.80;;
9052;SDS011;4561;47.450;7.516;2022-09-09T14:23:50;1.70;;;0.77;;
9052;SDS011;4561;47.450;7.516;2022-09-09T14:27:12;2.80;;;0.60;;
9052;SDS011;4561;47.450;7.516;2022-09-09T14:30:32;2.03;;;0.60;;
9052;SDS011;4561;47.450;7.516;2022-09-09T14:33:53;3.83;;;0.90;;
9052;SDS011;4561;47.450;7.516;2022-09-09T14:37:13;1.00;;;0.50;;
9052;SDS011;4561;47.450;7.516;2022-09-09T14:40:37;1.50;;;0.70;;
9052;SDS011;4561;47.450;7.516;2022-09-09T14:43:57;1.47;;;0.67;;
9052;SDS011;4561;47.450;7.516;2022-09-09T14:47:19;2.73;;;0.60;;
9052;SDS011;4561;47.450;7.516;2022-09-09T14:50:40;2.27;;;0.60;;
9052;SDS011;4561;47.450;7.516;2022-09-09T14:54:01;3.50;;;0.63;;
9052;SDS011;4561;47.450;7.516;2022-09-09T14:57:22;2.40;;;0.57;;
9052;SDS011;4561;47.450;7.516;2022-09-09T15:00:42;2.60;;;0.80;;
9052;SDS011;4561;47.450;7.516;2022-09-09T15:04:03;3.27;;;0.70;;
9052;SDS011;4561;47.450;7.516;2022-09-09T15:07:27;2.27;;;0.50;;
9052;SDS011;4561;47.450;7.516;2022-09-09T15:10:48;1.63;;;0.50;;
9052;SDS011;4561;47.450;7.516;2022-09-09T15:14:10;1.83;;;0.60;;
9052;SDS011;4561;47.450;7.516;2022-09-09T15:17:32;3.47;;;0.60;;
9052;SDS011;4561;47.450;7.516;2022-09-09T15:20:53;2.90;;;0.60;;
9052;SDS011;4561;47.450;7.516;2022-09-09T15:24:16;3.60;;;0.80;;
9052;SDS011;4561;47.450;7.516;2022-09-09T15:27:36;1.97;;;0.73;;
9052;SDS011;4561;47.450;7.516;2022-09-09T15:30:59;1.30;;;0.77;;
9052;SDS011;4561;47.450;7.516;2022-09-09T15:34:26;2.47;;;0.80;;
9052;SDS011;4561;47.450;7.516;2022-09-09T15:37:46;2.17;;;0.60;;
9052;SDS011;4561;47.450;7.516;2022-09-09T15:41:06;2.80;;;0.70;;
9052;SDS011;4561;47.450;7.516;2022-09-09T15:44:27;2.97;;;0.60;;
9052;SDS011;4561;47.450;7.516;2022-09-09T15:47:47;2.43;;;0.80;;
9052;SDS011;4561;47.450;7.516;2022-09-09T15:51:09;1.73;;;0.70;;
9052;SDS011;4561;47.450;7.516;2022-09-09T15:54:31;2.20;;;0.80;;
9052;SDS011;4561;47.450;7.516;2022-09-09T15:57:52;1.57;;;0.53;;
9052;SDS011;4561;47.450;7.516;2022-09-09T16:01:13;0.87;;;0.50;;
9052;SDS011;4561;47.450;7.516;2022-09-09T16:04:36;1.70;;;0.50;;
9052;SDS011;4561;47.450;7.516;2022-09-09T16:07:57;2.30;;;0.50;;
9052;SDS011;4561;47.450;7.516;2022-09-09T16:11:28;2.03;;;0.50;;
9052;SDS011;4561;47.450;7.516;2022-09-09T16:14:53;1.80;;;0.50;;
9052;SDS011;4561;47.450;7.516;2022-09-09T16:18:13;1.03;;;0.40;;
9052;SDS011;4561;47.450;7.516;2022-09-09T16:21:37;1.40;;;0.40;;
9052;SDS011;4561;47.450;7.516;2022-09-09T16:25:01;1.40;;;0.40;;
9052;SDS011;4561;47.450;7.516;2022-09-09T16:28:25;1.77;;;0.53;;
9052;SDS011;4561;47.450;7.516;2022-09-09T16:31:46;0.80;;;0.30;;
9052;SDS011;4561;47.450;7.516;2022-09-09T16:35:07;0.77;;;0.40;;
9052;SDS011;4561;47.450;7.516;2022-09-09T16:38:31;0.90;;;0.40;;
9052;SDS011;4561;47.450;7.516;2022-09-09T16:41:54;1.10;;;0.37;;
9052;SDS011;4561;47.450;7.516;2022-09-09T16:45:14;1.90;;;0.60;;
9052;SDS011;4561;47.450;7.516;2022-09-09T16:48:35;1.13;;;0.40;;
9052;SDS011;4561;47.450;7.516;2022-09-09T16:51:57;0.93;;;0.40;;
9052;SDS011;4561;47.450;7.516;2022-09-09T16:55:18;2.17;;;0.70;;
9052;SDS011;4561;47.450;7.516;2022-09-09T16:58:41;0.73;;;0.40;;
9052;SDS011;4561;47.450;7.516;2022-09-09T17:02:07;0.67;;;0.40;;
9052;SDS011;4561;47.450;7.516;2022-09-09T17:05:28;2.23;;;0.50;;
9052;SDS011;4561;47.450;7.516;2022-09-09T17:08:59;1.73;;;0.63;;
9052;SDS011;4561;47.450;7.516;2022-09-09T17:12:21;3.10;;;0.43;;
9052;SDS011;4561;47.450;7.516;2022-09-09T17:15:42;1.73;;;0.50;;
9052;SDS011;4561;47.450;7.516;2022-09-09T17:19:03;1.47;;;0.60;;
9052;SDS011;4561;47.450;7.516;2022-09-09T17:22:23;0.60;;;0.40;;
9052;SDS011;4561;47.450;7.516;2022-09-09T17:25:55;1.67;;;0.50;;
9052;SDS011;4561;47.450;7.516;2022-09-09T17:29:16;1.00;;;0.60;;
9052;SDS011;4561;47.450;7.516;2022-09-09T17:32:37;0.93;;;0.43;;
9052;SDS011;4561;47.450;7.516;2022-09-09T17:35:58;2.13;;;0.43;;
9052;SDS011;4561;47.450;7.516;2022-09-09T17:39:19;1.20;;;0.50;;
9052;SDS011;4561;47.450;7.516;2022-09-09T17:42:41;2.03;;;0.60;;
9052;SDS011;4561;47.450;7.516;2022-09-09T17:46:09;2.23;;;0.60;;
9052;SDS011;4561;47.450;7.516;2022-09-09T17:50:00;2.13;;;0.70;;
9052;SDS011;4561;47.450;7.516;2022-09-09T17:53:20;1.93;;;0.67;;
9052;SDS011;4561;47.450;7.516;2022-09-09T17:56:40;1.47;;;0.50;;
9052;SDS011;4561;47.450;7.516;2022-09-09T18:00:02;1.17;;;0.50;;
9052;SDS011;4561;47.450;7.516;2022-09-09T18:03:25;1.27;;;0.70;;
9052;SDS011;4561;47.450;7.516;2022-09-09T18:06:49;1.77;;;0.70;;
9052;SDS011;4561;47.450;7.516;2022-09-09T18:10:10;3.57;;;0.80;;
9052;SDS011;4561;47.450;7.516;2022-09-09T18:13:31;1.23;;;0.60;;
9052;SDS011;4561;47.450;7.516;2022-09-09T18:16:52;2.40;;;0.67;;
9052;SDS011;4561;47.450;7.516;2022-09-09T18:20:12;3.97;;;0.70;;
9052;SDS011;4561;47.450;7.516;2022-09-09T18:23:34;1.23;;;0.57;;
9052;SDS011;4561;47.450;7.516;2022-09-09T18:26:56;2.13;;;0.77;;
9052;SDS011;4561;47.450;7.516;2022-09-09T18:30:16;3.53;;;0.90;;
9052;SDS011;4561;47.450;7.516;2022-09-09T18:33:37;2.63;;;0.87;;
9052;SDS011;4561;47.450;7.516;2022-09-09T18:37:00;1.47;;;0.60;;
9052;SDS011;4561;47.450;7.516;2022-09-09T18:40:20;1.27;;;0.40;;
9052;SDS011;4561;47.450;7.516;2022-09-09T18:43:41;2.20;;;0.90;;
9052;SDS011;4561;47.450;7.516;2022-09-09T18:47:02;2.73;;;0.90;;
9052;SDS011;4561;47.450;7.516;2022-09-09T18:50:22;1.50;;;0.50;;
9052;SDS011;4561;47.450;7.516;2022-09-09T18:53:43;3.53;;;0.90;;
9052;SDS011;4561;47.450;7.516;2022-09-09T18:57:10;2.33;;;0.70;;
9052;SDS011;4561;47.450;7.516;2022-09-09T19:00:31;3.10;;;0.63;;
9052;SDS011;4561;47.450;7.516;2022-09-09T19:03:52;1.83;;;0.63;;
9052;SDS011;4561;47.450;7.516;2022-09-09T19:07:13;2.57;;;0.73;;
9052;SDS011;4561;47.450;7.516;2022-09-09T19:10:36;4.87;;;0.80;;
9052;SDS011;4561;47.450;7.516;2022-09-09T19:14:01;2.57;;;0.60;;
9052;SDS011;4561;47.450;7.516;2022-09-09T19:17:23;2.33;;;0.70;;
9052;SDS011;4561;47.450;7.516;2022-09-09T19:20:45;1.43;;;0.73;;
9052;SDS011;4561;47.450;7.516;2022-09-09T19:24:06;1.17;;;0.50;;
9052;SDS011;4561;47.450;7.516;2022-09-09T19:27:30;2.70;;;0.83;;
9052;SDS011;4561;47.450;7.516;2022-09-09T19:30:50;0.63;;;0.50;;
9052;SDS011;4561;47.450;7.516;2022-09-09T19:34:11;1.13;;;0.40;;
9052;SDS011;4561;47.450;7.516;2022-09-09T19:37:33;1.93;;;0.40;;
9052;SDS011;4561;47.450;7.516;2022-09-09T19:41:01;2.63;;;0.60;;
9052;SDS011;4561;47.450;7.516;2022-09-09T19:44:28;1.27;;;0.40;;
9052;SDS011;4561;47.450;7.516;2022-09-09T19:47:48;1.80;;;0.70;;
9052;SDS011;4561;47.450;7.516;2022-09-09T19:54:29;4.13;;;0.70;;
9052;SDS011;4561;47.450;7.516;2022-09-09T19:57:51;0.80;;;0.30;;
9052;SDS011;4561;47.450;7.516;2022-09-09T20:01:12;0.90;;;0.43;;
9052;SDS011;4561;47.450;7.516;2022-09-09T20:04:37;1.40;;;0.50;;
9052;SDS011;4561;47.450;7.516;2022-09-09T20:07:57;0.90;;;0.50;;
9052;SDS011;4561;47.450;7.516;2022-09-09T20:11:18;2.00;;;0.70;;
9052;SDS011;4561;47.450;7.516;2022-09-09T20:14:39;2.93;;;0.70;;
9052;SDS011;4561;47.450;7.516;2022-09-09T20:18:02;0.50;;;0.47;;
9052;SDS011;4561;47.450;7.516;2022-09-09T20:21:33;0.57;;;0.50;;
9052;SDS011;4561;47.450;7.516;2022-09-09T20:25:04;1.07;;;0.60;;
9052;SDS011;4561;47.450;7.516;2022-09-09T20:28:24;2.17;;;0.63;;
9052;SDS011;4561;47.450;7.516;2022-09-09T20:31:45;2.30;;;0.87;;
9052;SDS011;4561;47.450;7.516;2022-09-09T20:35:08;1.93;;;0.80;;
9052;SDS011;4561;47.450;7.516;2022-09-09T20:38:29;1.30;;;0.60;;
9052;SDS011;4561;47.450;7.516;2022-09-09T20:41:50;1.70;;;0.50;;
9052;SDS011;4561;47.450;7.516;2022-09-09T20:45:10;1.00;;;0.60;;
9052;SDS011;4561;47.450;7.516;2022-09-09T20:48:35;1.30;;;0.60;;
9052;SDS011;4561;47.450;7.516;2022-09-09T20:51:55;3.53;;;0.60;;
9052;SDS011;4561;47.450;7.516;2022-09-09T20:55:15;0.90;;;0.50;;
9052;SDS011;4561;47.450;7.516;2022-09-09T20:58:36;1.83;;;0.53;;
9052;SDS011;4561;47.450;7.516;2022-09-09T21:01:57;0.50;;;0.50;;
9052;SDS011;4561;47.450;7.516;2022-09-09T21:05:19;1.10;;;0.50;;
9052;SDS011;4561;47.450;7.516;2022-09-09T21:08:40;2.17;;;0.60;;
9052;SDS011;4561;47.450;7.516;2022-09-09T21:12:00;1.37;;;0.50;;
9052;SDS011;4561;47.450;7.516;2022-09-09T21:15:21;1.23;;;0.60;;
9052;SDS011;4561;47.450;7.516;2022-09-09T21:18:43;2.07;;;0.50;;
9052;SDS011;4561;47.450;7.516;2022-09-09T21:22:04;2.03;;;0.40;;
9052;SDS011;4561;47.450;7.516;2022-09-09T21:25:24;0.60;;;0.40;;
9052;SDS011;4561;47.450;7.516;2022-09-09T21:28:46;1.60;;;0.60;;
9052;SDS011;4561;47.450;7.516;2022-09-09T21:32:06;0.90;;;0.60;;
9052;SDS011;4561;47.450;7.516;2022-09-09T21:35:26;1.23;;;0.40;;
9052;SDS011;4561;47.450;7.516;2022-09-09T21:38:47;3.27;;;0.60;;
9052;SDS011;4561;47.450;7.516;2022-09-09T21:42:07;1.87;;;0.40;;
9052;SDS011;4561;47.450;7.516;2022-09-09T21:45:28;1.07;;;0.37;;
9052;SDS011;4561;47.450;7.516;2022-09-09T21:48:48;1.03;;;0.40;;
9052;SDS011;4561;47.450;7.516;2022-09-09T21:52:09;0.60;;;0.40;;
9052;SDS011;4561;47.450;7.516;2022-09-09T21:55:32;0.47;;;0.33;;
9052;SDS011;4561;47.450;7.516;2022-09-09T21:58:57;1.33;;;0.50;;
9052;SDS011;4561;47.450;7.516;2022-09-09T22:02:18;0.80;;;0.50;;
9052;SDS011;4561;47.450;7.516;2022-09-09T22:05:41;1.30;;;0.50;;
9052;SDS011;4561;47.450;7.516;2022-09-09T22:09:03;1.80;;;0.40;;
9052;SDS011;4561;47.450;7.516;2022-09-09T22:12:23;2.33;;;0.63;;
9052;SDS011;4561;47.450;7.516;2022-09-09T22:15:44;1.50;;;0.70;;
9052;SDS011;4561;47.450;7.516;2022-09-09T22:19:05;0.70;;;0.40;;
9052;SDS011;4561;47.450;7.516;2022-09-09T22:22:26;0.77;;;0.50;;
9052;SDS011;4561;47.450;7.516;2022-09-09T22:25:47;0.73;;;0.40;;
9052;SDS011;4561;47.450;7.516;2022-09-09T22:29:09;0.50;;;0.40;;
9052;SDS011;4561;47.450;7.516;2022-09-09T22:32:31;0.70;;;0.30;;
9052;SDS011;4561;47.450;7.516;2022-09-09T22:35:54;0.57;;;0.37;;
9052;SDS011;4561;47.450;7.516;2022-09-09T22:39:15;1.97;;;0.30;;
9052;SDS011;4561;47.450;7.516;2022-09-09T22:42:37;0.93;;;0.53;;
9052;SDS011;4561;47.450;7.516;2022-09-09T22:45:58;1.23;;;0.40;;
9052;SDS011;4561;47.450;7.516;2022-09-09T22:49:19;0.50;;;0.30;;
9052;SDS011;4561;47.450;7.516;2022-09-09T22:52:39;0.93;;;0.40;;
9052;SDS011;4561;47.450;7.516;2022-09-09T22:56:03;1.47;;;0.50;;
9052;SDS011;4561;47.450;7.516;2022-09-09T22:59:26;1.07;;;0.33;;
9052;SDS011;4561;47.450;7.516;2022-09-09T23:02:47;2.20;;;0.50;;
9052;SDS011;4561;47.450;7.516;2022-09-09T23:06:09;0.63;;;0.20;;
9052;SDS011;4561;47.450;7.516;2022-09-09T23:09:30;1.93;;;0.50;;
9052;SDS011;4561;47.450;7.516;2022-09-09T23:12:51;1.90;;;0.40;;
9052;SDS011;4561;47.450;7.516;2022-09-09T23:16:12;1.47;;;0.50;;
9052;SDS011;4561;47.450;7.516;2022-09-09T23:19:39;0.87;;;0.53;;
9052;SDS011;4561;47.450;7.516;2022-09-09T23:23:00;2.07;;;0.63;;
9052;SDS011;4561;47.450;7.516;2022-09-09T23:26:21;2.23;;;0.60;;